sensor_id;sensor_type;location;lat;lon;timestamp;P1;durP1;ratioP1;P2;durP2;ratioP2
13743;SDS011;6943;52.368;9.966;2023-06-10T00:01:52;5.13;;;3.60;;
13743;SDS011;6943;52.368;9.966;2023-06-10T00:04:23;7.90;;;5.13;;
13743;SDS011;6943;52.368;9.966;2023-06-10T00:06:48;8.03;;;4.03;;
13743;SDS011;6943;52.368;9.966;2023-06-10T00:09:15;6.00;;;3.70;;
13743;SDS011;6943;52.368;9.966;2023-06-10T00:11:41;7.23;;;4.27;;
13743;SDS011;6943;52.368;9.966;2023-06-10T00:14:07;5.70;;;3.57;;
13743;SDS011;6943;52.368;9.966;2023-06-10T00:16:34;8.17;;;4.53;;
13743;SDS011;6943;52.368;9.966;2023-06-10T00:19:00;7.97;;;4.60;;
13743;SDS011;6943;52.368;9.966;2023-06-10T00:21:27;6.13;;;4.27;;
13743;SDS011;6943;52.368;9.966;2023-06-10T00:23:54;8.47;;;4.17;;
13743;SDS011;6943;52.368;9.966;2023-06-10T00:26:20;7.27;;;4.77;;
13743;SDS011;6943;52.368;9.966;2023-06-10T00:28:46;7.97;;;4.50;;
13743;SDS011;6943;52.368;9.966;2023-06-10T00:31:12;6.63;;;4.33;;
13743;SDS011;6943;52.368;9.966;2023-06-10T00:33:38;7.43;;;4.07;;
13743;SDS011;6943;52.368;9.966;2023-06-10T00:36:04;7.47;;;4.47;;
13743;SDS011;6943;52.368;9.966;2023-06-10T00:38:30;7.70;;;4.13;;
13743;SDS011;6943;52.368;9.966;2023-06-10T00:40:56;9.80;;;4.43;;
13743;SDS011;6943;52.368;9.966;2023-06-10T00:43:23;7.97;;;4.70;;
13743;SDS011;6943;52.368;9.966;2023-06-10T00:45:49;8.00;;;4.37;;
13743;SDS011;6943;52.368;9.966;2023-06-10T00:48:15;6.63;;;4.50;;
13743;SDS011;6943;52.368;9.966;2023-06-10T00:50:41;7.67;;;4.57;;
13743;SDS011;6943;52.368;9.966;2023-06-10T00:53:07;6.70;;;4.03;;
13743;SDS011;6943;52.368;9.966;2023-06-10T00:55:34;7.83;;;4.33;;
13743;SDS011;6943;52.368;9.966;2023-06-10T00:58:00;7.07;;;4.23;;
13743;SDS011;6943;52.368;9.966;2023-06-10T01:00:26;5.73;;;4.40;;
13743;SDS011;6943;52.368;9.966;2023-06-10T01:02:52;7.83;;;4.43;;
13743;SDS011;6943;52.368;9.966;2023-06-10T01:05:18;6.50;;;4.33;;
13743;SDS011;6943;52.368;9.966;2023-06-10T01:10:24;8.37;;;4.77;;
13743;SDS011;6943;52.368;9.966;2023-06-10T01:13:02;7.40;;;4.20;;
13743;SDS011;6943;52.368;9.966;2023-06-10T01:15:31;9.37;;;4.83;;
13743;SDS011;6943;52.368;9.966;2023-06-10T01:20:26;9.57;;;4.83;;
13743;SDS011;6943;52.368;9.966;2023-06-10T01:22:56;11.23;;;4.43;;
13743;SDS011;6943;52.368;9.966;2023-06-10T01:25:23;8.13;;;4.33;;
13743;SDS011;6943;52.368;9.966;2023-06-10T01:27:53;6.80;;;4.97;;
13743;SDS011;6943;52.368;9.966;2023-06-10T01:30:20;7.70;;;4.67;;
13743;SDS011;6943;52.368;9.966;2023-06-10T01:32:48;7.70;;;5.00;;
13743;SDS011;6943;52.368;9.966;2023-06-10T01:35:15;8.07;;;4.67;;
13743;SDS011;6943;52.368;9.966;2023-06-10T01:37:43;9.30;;;4.57;;
13743;SDS011;6943;52.368;9.966;2023-06-10T01:40:11;8.33;;;4.93;;
13743;SDS011;6943;52.368;9.966;2023-06-10T01:42:37;10.70;;;5.17;;
13743;SDS011;6943;52.368;9.966;2023-06-10T01:45:03;7.87;;;5.27;;
13743;SDS011;6943;52.368;9.966;2023-06-10T01:47:29;8.70;;;5.70;;
13743;SDS011;6943;52.368;9.966;2023-06-10T01:49:55;7.60;;;5.20;;
13743;SDS011;6943;52.368;9.966;2023-06-10T01:52:21;7.80;;;5.00;;
13743;SDS011;6943;52.368;9.966;2023-06-10T01:54:47;7.47;;;5.00;;
13743;SDS011;6943;52.368;9.966;2023-06-10T01:57:13;8.93;;;5.37;;
13743;SDS011;6943;52.368;9.966;2023-06-10T01:59:39;11.97;;;5.83;;
13743;SDS011;6943;52.368;9.966;2023-06-10T02:02:05;8.87;;;5.40;;
13743;SDS011;6943;52.368;9.966;2023-06-10T02:04:31;9.40;;;5.77;;
13743;SDS011;6943;52.368;9.966;2023-06-10T02:06:57;7.43;;;5.13;;
13743;SDS011;6943;52.368;9.966;2023-06-10T02:09:23;12.63;;;6.00;;
13743;SDS011;6943;52.368;9.966;2023-06-10T02:11:49;9.67;;;5.73;;
13743;SDS011;6943;52.368;9.966;2023-06-10T02:14:15;12.07;;;6.33;;
13743;SDS011;6943;52.368;9.966;2023-06-10T02:16:41;7.43;;;6.10;;
13743;SDS011;6943;52.368;9.966;2023-06-10T02:19:10;11.23;;;5.53;;
13743;SDS011;6943;52.368;9.966;2023-06-10T02:21:37;7.17;;;5.33;;
13743;SDS011;6943;52.368;9.966;2023-06-10T02:24:03;9.00;;;6.07;;
13743;SDS011;6943;52.368;9.966;2023-06-10T02:26:29;11.77;;;6.70;;
13743;SDS011;6943;52.368;9.966;2023-06-10T02:28:55;11.03;;;6.20;;
13743;SDS011;6943;52.368;9.966;2023-06-10T02:31:21;9.80;;;5.43;;
13743;SDS011;6943;52.368;9.966;2023-06-10T02:33:49;10.00;;;5.97;;
13743;SDS011;6943;52.368;9.966;2023-06-10T02:36:15;14.40;;;7.03;;
13743;SDS011;6943;52.368;9.966;2023-06-10T02:38:41;11.73;;;6.53;;
13743;SDS011;6943;52.368;9.966;2023-06-10T02:41:07;8.83;;;6.17;;
13743;SDS011;6943;52.368;9.966;2023-06-10T02:43:33;10.47;;;6.10;;
13743;SDS011;6943;52.368;9.966;2023-06-10T02:45:59;11.07;;;7.00;;
13743;SDS011;6943;52.368;9.966;2023-06-10T02:48:25;11.80;;;6.33;;
13743;SDS011;6943;52.368;9.966;2023-06-10T02:50:52;10.73;;;7.00;;
13743;SDS011;6943;52.368;9.966;2023-06-10T02:53:18;9.07;;;6.27;;
13743;SDS011;6943;52.368;9.966;2023-06-10T02:55:44;9.90;;;6.77;;
13743;SDS011;6943;52.368;9.966;2023-06-10T02:58:10;11.97;;;6.70;;
13743;SDS011;6943;52.368;9.966;2023-06-10T03:00:35;9.83;;;6.17;;
13743;SDS011;6943;52.368;9.966;2023-06-10T03:03:02;9.63;;;6.23;;
13743;SDS011;6943;52.368;9.966;2023-06-10T03:05:29;10.37;;;6.63;;
13743;SDS011;6943;52.368;9.966;2023-06-10T03:07:55;11.80;;;7.00;;
13743;SDS011;6943;52.368;9.966;2023-06-10T03:10:21;10.53;;;7.00;;
13743;SDS011;6943;52.368;9.966;2023-06-10T03:12:47;11.50;;;6.47;;
13743;SDS011;6943;52.368;9.966;2023-06-10T03:15:13;10.70;;;7.07;;
13743;SDS011;6943;52.368;9.966;2023-06-10T03:17:40;12.00;;;6.87;;
13743;SDS011;6943;52.368;9.966;2023-06-10T03:20:06;8.40;;;6.43;;
13743;SDS011;6943;52.368;9.966;2023-06-10T03:22:35;10.70;;;6.73;;
13743;SDS011;6943;52.368;9.966;2023-06-10T03:25:02;11.63;;;7.00;;
13743;SDS011;6943;52.368;9.966;2023-06-10T03:27:28;12.53;;;7.17;;
13743;SDS011;6943;52.368;9.966;2023-06-10T03:29:55;12.53;;;6.80;;
13743;SDS011;6943;52.368;9.966;2023-06-10T03:32:21;10.57;;;6.63;;
13743;SDS011;6943;52.368;9.966;2023-06-10T03:34:47;13.50;;;7.20;;
13743;SDS011;6943;52.368;9.966;2023-06-10T03:37:13;10.87;;;7.00;;
13743;SDS011;6943;52.368;9.966;2023-06-10T03:39:39;11.27;;;7.10;;
13743;SDS011;6943;52.368;9.966;2023-06-10T03:42:05;10.30;;;6.60;;
13743;SDS011;6943;52.368;9.966;2023-06-10T03:44:31;9.17;;;6.10;;
13743;SDS011;6943;52.368;9.966;2023-06-10T03:46:57;10.80;;;6.23;;
13743;SDS011;6943;52.368;9.966;2023-06-10T03:49:24;10.83;;;6.20;;
13743;SDS011;6943;52.368;9.966;2023-06-10T03:51:53;9.87;;;6.43;;
13743;SDS011;6943;52.368;9.966;2023-06-10T03:54:19;8.20;;;6.33;;
13743;SDS011;6943;52.368;9.966;2023-06-10T03:56:45;9.67;;;6.03;;
13743;SDS011;6943;52.368;9.966;2023-06-10T03:59:13;10.10;;;6.70;;
13743;SDS011;6943;52.368;9.966;2023-06-10T04:01:39;11.57;;;6.63;;
13743;SDS011;6943;52.368;9.966;2023-06-10T04:04:06;11.73;;;7.23;;
13743;SDS011;6943;52.368;9.966;2023-06-10T04:06:31;12.80;;;7.03;;
13743;SDS011;6943;52.368;9.966;2023-06-10T04:08:57;10.57;;;6.43;;
13743;SDS011;6943;52.368;9.966;2023-06-10T04:11:24;9.13;;;6.87;;
13743;SDS011;6943;52.368;9.966;2023-06-10T04:13:50;8.17;;;5.70;;
13743;SDS011;6943;52.368;9.966;2023-06-10T04:16:16;8.30;;;6.23;;
13743;SDS011;6943;52.368;9.966;2023-06-10T04:18:42;10.30;;;5.73;;
13743;SDS011;6943;52.368;9.966;2023-06-10T04:21:08;6.90;;;5.37;;
13743;SDS011;6943;52.368;9.966;2023-06-10T04:23:34;10.97;;;6.13;;
13743;SDS011;6943;52.368;9.966;2023-06-10T04:26:01;8.20;;;6.00;;
13743;SDS011;6943;52.368;9.966;2023-06-10T04:28:27;7.93;;;5.33;;
13743;SDS011;6943;52.368;9.966;2023-06-10T04:30:53;7.13;;;5.43;;
13743;SDS011;6943;52.368;9.966;2023-06-10T04:33:19;7.87;;;5.87;;
13743;SDS011;6943;52.368;9.966;2023-06-10T04:35:45;7.67;;;5.43;;
13743;SDS011;6943;52.368;9.966;2023-06-10T04:38:12;10.20;;;5.80;;
13743;SDS011;6943;52.368;9.966;2023-06-10T04:40:38;8.90;;;5.57;;
13743;SDS011;6943;52.368;9.966;2023-06-10T04:43:05;8.17;;;5.70;;
13743;SDS011;6943;52.368;9.966;2023-06-10T04:45:31;10.57;;;6.20;;
13743;SDS011;6943;52.368;9.966;2023-06-10T04:47:56;9.80;;;5.43;;
13743;SDS011;6943;52.368;9.966;2023-06-10T04:50:23;7.40;;;5.13;;
13743;SDS011;6943;52.368;9.966;2023-06-10T04:52:49;7.47;;;5.40;;
13743;SDS011;6943;52.368;9.966;2023-06-10T04:55:15;9.47;;;5.90;;
13743;SDS011;6943;52.368;9.966;2023-06-10T04:57:41;7.23;;;5.23;;
13743;SDS011;6943;52.368;9.966;2023-06-10T05:00:07;9.13;;;5.50;;
13743;SDS011;6943;52.368;9.966;2023-06-10T05:02:33;8.43;;;4.93;;
13743;SDS011;6943;52.368;9.966;2023-06-10T05:04:59;7.87;;;5.30;;
13743;SDS011;6943;52.368;9.966;2023-06-10T05:07:25;7.40;;;4.60;;
13743;SDS011;6943;52.368;9.966;2023-06-10T05:09:51;9.20;;;5.27;;
13743;SDS011;6943;52.368;9.966;2023-06-10T05:12:17;6.90;;;4.60;;
13743;SDS011;6943;52.368;9.966;2023-06-10T05:14:43;8.63;;;5.00;;
13743;SDS011;6943;52.368;9.966;2023-06-10T05:17:09;7.60;;;5.03;;
13743;SDS011;6943;52.368;9.966;2023-06-10T05:19:36;9.70;;;4.90;;
13743;SDS011;6943;52.368;9.966;2023-06-10T05:22:02;9.20;;;5.17;;
13743;SDS011;6943;52.368;9.966;2023-06-10T05:24:28;9.13;;;5.27;;
13743;SDS011;6943;52.368;9.966;2023-06-10T05:26:54;6.70;;;4.63;;
13743;SDS011;6943;52.368;9.966;2023-06-10T05:29:20;9.13;;;5.60;;
13743;SDS011;6943;52.368;9.966;2023-06-10T05:31:46;7.67;;;4.50;;
13743;SDS011;6943;52.368;9.966;2023-06-10T05:34:12;6.60;;;4.70;;
13743;SDS011;6943;52.368;9.966;2023-06-10T05:36:38;7.83;;;4.70;;
13743;SDS011;6943;52.368;9.966;2023-06-10T05:39:03;6.67;;;4.50;;
13743;SDS011;6943;52.368;9.966;2023-06-10T05:41:29;9.80;;;5.07;;
13743;SDS011;6943;52.368;9.966;2023-06-10T05:43:55;5.93;;;4.80;;
13743;SDS011;6943;52.368;9.966;2023-06-10T05:46:21;9.47;;;4.97;;
13743;SDS011;6943;52.368;9.966;2023-06-10T05:48:47;6.57;;;5.00;;
13743;SDS011;6943;52.368;9.966;2023-06-10T05:51:13;7.65;;;5.00;;
13743;SDS011;6943;52.368;9.966;2023-06-10T05:53:39;6.78;;;5.05;;
13743;SDS011;6943;52.368;9.966;2023-06-10T05:56:05;8.23;;;5.00;;
13743;SDS011;6943;52.368;9.966;2023-06-10T05:58:31;9.27;;;5.60;;
13743;SDS011;6943;52.368;9.966;2023-06-10T06:00:57;9.73;;;5.60;;
13743;SDS011;6943;52.368;9.966;2023-06-10T06:03:23;8.47;;;5.83;;
13743;SDS011;6943;52.368;9.966;2023-06-10T06:05:49;9.40;;;5.57;;
13743;SDS011;6943;52.368;9.966;2023-06-10T06:08:15;9.47;;;5.53;;
13743;SDS011;6943;52.368;9.966;2023-06-10T06:10:44;8.87;;;5.83;;
13743;SDS011;6943;52.368;9.966;2023-06-10T06:13:09;8.63;;;5.60;;
13743;SDS011;6943;52.368;9.966;2023-06-10T06:15:35;7.77;;;5.77;;
13743;SDS011;6943;52.368;9.966;2023-06-10T06:18:01;7.95;;;5.22;;
13743;SDS011;6943;52.368;9.966;2023-06-10T06:20:27;7.65;;;5.13;;
13743;SDS011;6943;52.368;9.966;2023-06-10T06:22:54;7.73;;;5.67;;
13743;SDS011;6943;52.368;9.966;2023-06-10T06:25:19;8.63;;;6.37;;
13743;SDS011;6943;52.368;9.966;2023-06-10T06:27:45;7.73;;;5.70;;
13743;SDS011;6943;52.368;9.966;2023-06-10T06:30:11;9.23;;;5.80;;
13743;SDS011;6943;52.368;9.966;2023-06-10T06:32:37;7.90;;;6.30;;
13743;SDS011;6943;52.368;9.966;2023-06-10T06:35:03;7.57;;;6.07;;
13743;SDS011;6943;52.368;9.966;2023-06-10T06:37:32;8.93;;;5.90;;
13743;SDS011;6943;52.368;9.966;2023-06-10T06:39:58;6.95;;;4.95;;
13743;SDS011;6943;52.368;9.966;2023-06-10T06:42:24;9.52;;;5.90;;
13743;SDS011;6943;52.368;9.966;2023-06-10T06:44:50;10.52;;;6.38;;
13743;SDS011;6943;52.368;9.966;2023-06-10T06:47:16;8.53;;;5.80;;
13743;SDS011;6943;52.368;9.966;2023-06-10T06:49:45;8.17;;;6.10;;
13743;SDS011;6943;52.368;9.966;2023-06-10T06:52:12;6.93;;;6.00;;
13743;SDS011;6943;52.368;9.966;2023-06-10T06:54:38;8.87;;;6.23;;
13743;SDS011;6943;52.368;9.966;2023-06-10T06:57:05;14.93;;;6.03;;
13743;SDS011;6943;52.368;9.966;2023-06-10T06:59:31;9.98;;;6.20;;
13743;SDS011;6943;52.368;9.966;2023-06-10T07:01:57;10.35;;;5.70;;
13743;SDS011;6943;52.368;9.966;2023-06-10T07:04:24;11.55;;;6.00;;
13743;SDS011;6943;52.368;9.966;2023-06-10T07:06:50;7.43;;;5.97;;
13743;SDS011;6943;52.368;9.966;2023-06-10T07:09:15;9.07;;;6.53;;
13743;SDS011;6943;52.368;9.966;2023-06-10T07:11:41;8.10;;;6.07;;
13743;SDS011;6943;52.368;9.966;2023-06-10T07:14:07;8.23;;;5.72;;
13743;SDS011;6943;52.368;9.966;2023-06-10T07:16:33;8.50;;;6.25;;
13743;SDS011;6943;52.368;9.966;2023-06-10T07:18:59;11.82;;;6.15;;
13743;SDS011;6943;52.368;9.966;2023-06-10T07:21:25;8.32;;;6.07;;
13743;SDS011;6943;52.368;9.966;2023-06-10T07:23:53;9.98;;;5.72;;
13743;SDS011;6943;52.368;9.966;2023-06-10T07:26:21;9.45;;;6.22;;
13743;SDS011;6943;52.368;9.966;2023-06-10T07:28:47;7.43;;;5.68;;
13743;SDS011;6943;52.368;9.966;2023-06-10T07:31:13;9.45;;;5.78;;
13743;SDS011;6943;52.368;9.966;2023-06-10T07:33:39;9.15;;;6.10;;
13743;SDS011;6943;52.368;9.966;2023-06-10T07:36:05;7.63;;;5.97;;
13743;SDS011;6943;52.368;9.966;2023-06-10T07:38:31;8.30;;;5.90;;
13743;SDS011;6943;52.368;9.966;2023-06-10T07:40:57;6.38;;;5.28;;
13743;SDS011;6943;52.368;9.966;2023-06-10T07:43:24;7.47;;;5.88;;
13743;SDS011;6943;52.368;9.966;2023-06-10T07:45:50;7.57;;;5.93;;
13743;SDS011;6943;52.368;9.966;2023-06-10T07:48:16;6.97;;;5.50;;
13743;SDS011;6943;52.368;9.966;2023-06-10T07:50:42;7.97;;;6.28;;
13743;SDS011;6943;52.368;9.966;2023-06-10T07:53:07;8.70;;;5.88;;
13743;SDS011;6943;52.368;9.966;2023-06-10T07:55:33;8.68;;;5.60;;
13743;SDS011;6943;52.368;9.966;2023-06-10T07:57:59;6.82;;;5.88;;
13743;SDS011;6943;52.368;9.966;2023-06-10T08:00:25;7.30;;;5.32;;
13743;SDS011;6943;52.368;9.966;2023-06-10T08:02:51;5.80;;;4.63;;
13743;SDS011;6943;52.368;9.966;2023-06-10T08:05:17;9.40;;;5.72;;
13743;SDS011;6943;52.368;9.966;2023-06-10T08:07:44;7.40;;;5.97;;
13743;SDS011;6943;52.368;9.966;2023-06-10T08:10:10;7.32;;;5.40;;
13743;SDS011;6943;52.368;9.966;2023-06-10T08:12:36;9.05;;;6.60;;
13743;SDS011;6943;52.368;9.966;2023-06-10T08:15:02;7.20;;;5.40;;
13743;SDS011;6943;52.368;9.966;2023-06-10T08:17:29;7.45;;;6.38;;
13743;SDS011;6943;52.368;9.966;2023-06-10T08:19:54;7.25;;;5.55;;
13743;SDS011;6943;52.368;9.966;2023-06-10T08:22:20;8.88;;;5.85;;
13743;SDS011;6943;52.368;9.966;2023-06-10T08:24:46;8.50;;;5.80;;
13743;SDS011;6943;52.368;9.966;2023-06-10T08:27:12;10.38;;;6.40;;
13743;SDS011;6943;52.368;9.966;2023-06-10T08:29:38;7.03;;;5.80;;
13743;SDS011;6943;52.368;9.966;2023-06-10T08:32:04;8.88;;;6.22;;
13743;SDS011;6943;52.368;9.966;2023-06-10T08:36:57;7.75;;;5.40;;
13743;SDS011;6943;52.368;9.966;2023-06-10T08:39:23;7.95;;;5.60;;
13743;SDS011;6943;52.368;9.966;2023-06-10T08:42:24;7.03;;;5.90;;
13743;SDS011;6943;52.368;9.966;2023-06-10T08:44:42;10.38;;;5.55;;
13743;SDS011;6943;52.368;9.966;2023-06-10T08:47:12;8.45;;;5.57;;
13743;SDS011;6943;52.368;9.966;2023-06-10T08:49:41;9.35;;;5.03;;
13743;SDS011;6943;52.368;9.966;2023-06-10T08:52:08;8.43;;;5.45;;
13743;SDS011;6943;52.368;9.966;2023-06-10T08:54:37;7.55;;;5.45;;
13743;SDS011;6943;52.368;9.966;2023-06-10T08:57:05;8.07;;;5.57;;
13743;SDS011;6943;52.368;9.966;2023-06-10T08:59:31;6.93;;;5.88;;
13743;SDS011;6943;52.368;9.966;2023-06-10T09:01:58;6.18;;;5.35;;
13743;SDS011;6943;52.368;9.966;2023-06-10T09:04:24;9.38;;;6.00;;
13743;SDS011;6943;52.368;9.966;2023-06-10T09:06:50;8.50;;;5.80;;
13743;SDS011;6943;52.368;9.966;2023-06-10T09:09:16;9.43;;;5.60;;
13743;SDS011;6943;52.368;9.966;2023-06-10T09:11:44;7.45;;;6.10;;
13743;SDS011;6943;52.368;9.966;2023-06-10T09:14:10;8.65;;;5.93;;
13743;SDS011;6943;52.368;9.966;2023-06-10T09:16:37;10.20;;;6.18;;
13743;SDS011;6943;52.368;9.966;2023-06-10T09:19:04;6.10;;;5.38;;
13743;SDS011;6943;52.368;9.966;2023-06-10T09:21:33;9.63;;;5.22;;
13743;SDS011;6943;52.368;9.966;2023-06-10T09:23:59;9.85;;;5.20;;
13743;SDS011;6943;52.368;9.966;2023-06-10T09:26:28;7.80;;;5.00;;
13743;SDS011;6943;52.368;9.966;2023-06-10T09:28:57;8.90;;;5.47;;
13743;SDS011;6943;52.368;9.966;2023-06-10T09:31:23;10.77;;;6.30;;
13743;SDS011;6943;52.368;9.966;2023-06-10T09:33:49;11.07;;;5.90;;
13743;SDS011;6943;52.368;9.966;2023-06-10T09:36:21;10.33;;;6.00;;
13743;SDS011;6943;52.368;9.966;2023-06-10T09:38:49;9.67;;;5.67;;
13743;SDS011;6943;52.368;9.966;2023-06-10T09:41:16;10.20;;;6.20;;
13743;SDS011;6943;52.368;9.966;2023-06-10T09:43:42;8.07;;;5.72;;
13743;SDS011;6943;52.368;9.966;2023-06-10T09:46:16;9.70;;;5.60;;
13743;SDS011;6943;52.368;9.966;2023-06-10T09:48:43;6.80;;;4.97;;
13743;SDS011;6943;52.368;9.966;2023-06-10T09:51:09;9.90;;;6.28;;
13743;SDS011;6943;52.368;9.966;2023-06-10T09:53:35;8.90;;;5.22;;
13743;SDS011;6943;52.368;9.966;2023-06-10T09:56:01;7.30;;;5.43;;
13743;SDS011;6943;52.368;9.966;2023-06-10T09:58:37;8.38;;;5.47;;
13743;SDS011;6943;52.368;9.966;2023-06-10T10:01:08;11.90;;;6.25;;
13743;SDS011;6943;52.368;9.966;2023-06-10T10:03:42;8.27;;;5.72;;
13743;SDS011;6943;52.368;9.966;2023-06-10T10:06:09;6.68;;;4.90;;
13743;SDS011;6943;52.368;9.966;2023-06-10T10:08:35;6.65;;;5.45;;
13743;SDS011;6943;52.368;9.966;2023-06-10T10:11:01;7.82;;;6.32;;
13743;SDS011;6943;52.368;9.966;2023-06-10T10:13:27;8.98;;;5.68;;
13743;SDS011;6943;52.368;9.966;2023-06-10T10:15:54;6.55;;;5.45;;
13743;SDS011;6943;52.368;9.966;2023-06-10T10:18:20;8.20;;;5.47;;
13743;SDS011;6943;52.368;9.966;2023-06-10T10:20:53;10.38;;;6.22;;
13743;SDS011;6943;52.368;9.966;2023-06-10T10:23:31;11.02;;;6.05;;
13743;SDS011;6943;52.368;9.966;2023-06-10T10:25:57;7.20;;;5.72;;
13743;SDS011;6943;52.368;9.966;2023-06-10T10:28:26;9.23;;;6.15;;
13743;SDS011;6943;52.368;9.966;2023-06-10T10:30:58;10.88;;;6.13;;
13743;SDS011;6943;52.368;9.966;2023-06-10T10:33:31;8.35;;;6.07;;
13743;SDS011;6943;52.368;9.966;2023-06-10T10:35:58;9.18;;;6.18;;
13743;SDS011;6943;52.368;9.966;2023-06-10T10:38:24;10.45;;;5.80;;
13743;SDS011;6943;52.368;9.966;2023-06-10T10:40:50;10.80;;;6.75;;
13743;SDS011;6943;52.368;9.966;2023-06-10T10:43:17;9.15;;;6.50;;
13743;SDS011;6943;52.368;9.966;2023-06-10T10:45:45;8.73;;;6.25;;
13743;SDS011;6943;52.368;9.966;2023-06-10T10:48:11;7.38;;;5.55;;
13743;SDS011;6943;52.368;9.966;2023-06-10T10:50:38;9.60;;;6.32;;
13743;SDS011;6943;52.368;9.966;2023-06-10T10:53:05;8.60;;;6.05;;
13743;SDS011;6943;52.368;9.966;2023-06-10T10:55:32;9.00;;;6.15;;
13743;SDS011;6943;52.368;9.966;2023-06-10T11:00:24;7.18;;;6.45;;
13743;SDS011;6943;52.368;9.966;2023-06-10T11:02:50;9.32;;;7.20;;
13743;SDS011;6943;52.368;9.966;2023-06-10T11:05:18;8.68;;;6.97;;
13743;SDS011;6943;52.368;9.966;2023-06-10T11:07:56;8.27;;;6.50;;
13743;SDS011;6943;52.368;9.966;2023-06-10T11:10:38;7.82;;;6.10;;
13743;SDS011;6943;52.368;9.966;2023-06-10T11:13:13;10.05;;;6.18;;
13743;SDS011;6943;52.368;9.966;2023-06-10T11:15:44;8.75;;;6.68;;
13743;SDS011;6943;52.368;9.966;2023-06-10T11:18:14;9.25;;;6.45;;
13743;SDS011;6943;52.368;9.966;2023-06-10T11:20:41;8.65;;;6.65;;
13743;SDS011;6943;52.368;9.966;2023-06-10T11:23:07;8.60;;;6.45;;
13743;SDS011;6943;52.368;9.966;2023-06-10T11:25:42;8.68;;;6.45;;
13743;SDS011;6943;52.368;9.966;2023-06-10T11:28:17;12.10;;;6.40;;
13743;SDS011;6943;52.368;9.966;2023-06-10T11:30:43;7.57;;;6.28;;
13743;SDS011;6943;52.368;9.966;2023-06-10T11:33:09;7.22;;;6.53;;
13743;SDS011;6943;52.368;9.966;2023-06-10T11:41:47;9.18;;;6.35;;
13743;SDS011;6943;52.368;9.966;2023-06-10T11:44:13;9.15;;;7.38;;
13743;SDS011;6943;52.368;9.966;2023-06-10T11:46:39;9.10;;;7.45;;
13743;SDS011;6943;52.368;9.966;2023-06-10T11:49:07;7.10;;;6.35;;
13743;SDS011;6943;52.368;9.966;2023-06-10T11:51:36;7.60;;;6.90;;
13743;SDS011;6943;52.368;9.966;2023-06-10T11:54:03;8.00;;;6.40;;
13743;SDS011;6943;52.368;9.966;2023-06-10T11:56:31;9.85;;;6.95;;
13743;SDS011;6943;52.368;9.966;2023-06-10T12:02:00;7.93;;;7.07;;
13743;SDS011;6943;52.368;9.966;2023-06-10T12:04:26;8.25;;;6.90;;
13743;SDS011;6943;52.368;9.966;2023-06-10T12:06:53;9.77;;;7.18;;
13743;SDS011;6943;52.368;9.966;2023-06-10T12:09:26;8.45;;;7.05;;
13743;SDS011;6943;52.368;9.966;2023-06-10T12:19:56;7.65;;;6.95;;
13743;SDS011;6943;52.368;9.966;2023-06-10T12:22:22;7.47;;;6.78;;
13743;SDS011;6943;52.368;9.966;2023-06-10T12:24:58;7.45;;;6.63;;
13743;SDS011;6943;52.368;9.966;2023-06-10T12:27:28;7.88;;;7.07;;
13743;SDS011;6943;52.368;9.966;2023-06-10T12:29:55;7.40;;;6.60;;
13743;SDS011;6943;52.368;9.966;2023-06-10T12:32:21;8.55;;;6.82;;
13743;SDS011;6943;52.368;9.966;2023-06-10T12:34:54;10.82;;;7.55;;
13743;SDS011;6943;52.368;9.966;2023-06-10T12:37:28;7.53;;;6.25;;
13743;SDS011;6943;52.368;9.966;2023-06-10T12:39:54;8.25;;;5.95;;
13743;SDS011;6943;52.368;9.966;2023-06-10T12:42:22;9.15;;;7.18;;
13743;SDS011;6943;52.368;9.966;2023-06-10T12:44:52;10.13;;;6.78;;
13743;SDS011;6943;52.368;9.966;2023-06-10T12:47:18;9.65;;;6.75;;
13743;SDS011;6943;52.368;9.966;2023-06-10T12:49:44;8.75;;;6.43;;
13743;SDS011;6943;52.368;9.966;2023-06-10T12:52:10;7.35;;;5.90;;
13743;SDS011;6943;52.368;9.966;2023-06-10T12:54:36;6.93;;;6.03;;
13743;SDS011;6943;52.368;9.966;2023-06-10T12:57:02;7.43;;;6.32;;
13743;SDS011;6943;52.368;9.966;2023-06-10T12:59:28;8.90;;;6.72;;
13743;SDS011;6943;52.368;9.966;2023-06-10T13:01:54;8.98;;;6.72;;
13743;SDS011;6943;52.368;9.966;2023-06-10T13:04:21;8.48;;;6.05;;
13743;SDS011;6943;52.368;9.966;2023-06-10T13:06:48;8.98;;;6.78;;
13743;SDS011;6943;52.368;9.966;2023-06-10T13:09:14;7.60;;;6.72;;
13743;SDS011;6943;52.368;9.966;2023-06-10T13:11:40;9.52;;;6.88;;
13743;SDS011;6943;52.368;9.966;2023-06-10T13:14:06;6.45;;;5.90;;
13743;SDS011;6943;52.368;9.966;2023-06-10T13:16:32;7.78;;;6.80;;
13743;SDS011;6943;52.368;9.966;2023-06-10T13:18:59;8.88;;;6.50;;
13743;SDS011;6943;52.368;9.966;2023-06-10T13:21:26;7.38;;;6.28;;
13743;SDS011;6943;52.368;9.966;2023-06-10T13:23:52;7.32;;;6.68;;
13743;SDS011;6943;52.368;9.966;2023-06-10T13:26:18;7.72;;;6.72;;
13743;SDS011;6943;52.368;9.966;2023-06-10T13:28:44;7.10;;;5.90;;
13743;SDS011;6943;52.368;9.966;2023-06-10T13:31:10;7.63;;;6.47;;
13743;SDS011;6943;52.368;9.966;2023-06-10T13:33:36;8.13;;;6.43;;
13743;SDS011;6943;52.368;9.966;2023-06-10T13:36:02;7.35;;;6.75;;
13743;SDS011;6943;52.368;9.966;2023-06-10T13:38:28;7.80;;;6.28;;
13743;SDS011;6943;52.368;9.966;2023-06-10T13:40:54;7.60;;;6.57;;
13743;SDS011;6943;52.368;9.966;2023-06-10T13:43:20;7.78;;;6.90;;
13743;SDS011;6943;52.368;9.966;2023-06-10T13:45:46;8.68;;;7.13;;
13743;SDS011;6943;52.368;9.966;2023-06-10T13:48:12;7.50;;;6.70;;
13743;SDS011;6943;52.368;9.966;2023-06-10T13:50:38;9.15;;;7.25;;
13743;SDS011;6943;52.368;9.966;2023-06-10T13:53:04;7.78;;;6.97;;
13743;SDS011;6943;52.368;9.966;2023-06-10T13:55:30;7.18;;;6.47;;
13743;SDS011;6943;52.368;9.966;2023-06-10T13:57:55;7.07;;;6.40;;
13743;SDS011;6943;52.368;9.966;2023-06-10T14:00:21;7.55;;;6.55;;
13743;SDS011;6943;52.368;9.966;2023-06-10T14:02:47;9.52;;;7.22;;
13743;SDS011;6943;52.368;9.966;2023-06-10T14:05:13;7.45;;;6.38;;
13743;SDS011;6943;52.368;9.966;2023-06-10T14:07:39;6.85;;;6.25;;
13743;SDS011;6943;52.368;9.966;2023-06-10T14:10:05;7.15;;;6.47;;
13743;SDS011;6943;52.368;9.966;2023-06-10T14:12:33;8.23;;;6.78;;
13743;SDS011;6943;52.368;9.966;2023-06-10T14:14:59;9.02;;;7.00;;
13743;SDS011;6943;52.368;9.966;2023-06-10T14:17:25;7.72;;;6.05;;
13743;SDS011;6943;52.368;9.966;2023-06-10T14:19:51;9.13;;;7.00;;
13743;SDS011;6943;52.368;9.966;2023-06-10T14:22:17;7.60;;;6.90;;
13743;SDS011;6943;52.368;9.966;2023-06-10T14:24:43;9.73;;;6.82;;
13743;SDS011;6943;52.368;9.966;2023-06-10T14:27:09;7.82;;;6.53;;
13743;SDS011;6943;52.368;9.966;2023-06-10T14:29:35;7.88;;;6.53;;
13743;SDS011;6943;52.368;9.966;2023-06-10T14:32:01;7.65;;;6.80;;
13743;SDS011;6943;52.368;9.966;2023-06-10T14:34:27;8.63;;;6.65;;
13743;SDS011;6943;52.368;9.966;2023-06-10T14:36:54;10.40;;;6.43;;
13743;SDS011;6943;52.368;9.966;2023-06-10T14:39:20;7.75;;;6.25;;
13743;SDS011;6943;52.368;9.966;2023-06-10T14:41:46;8.48;;;6.85;;
13743;SDS011;6943;52.368;9.966;2023-06-10T14:44:12;8.10;;;7.13;;
13743;SDS011;6943;52.368;9.966;2023-06-10T14:46:38;8.25;;;6.35;;
13743;SDS011;6943;52.368;9.966;2023-06-10T14:49:04;7.30;;;6.60;;
13743;SDS011;6943;52.368;9.966;2023-06-10T14:51:30;7.10;;;6.40;;
13743;SDS011;6943;52.368;9.966;2023-06-10T14:53:56;9.15;;;6.70;;
13743;SDS011;6943;52.368;9.966;2023-06-10T14:56:23;7.90;;;6.72;;
13743;SDS011;6943;52.368;9.966;2023-06-10T14:58:50;7.25;;;6.55;;
13743;SDS011;6943;52.368;9.966;2023-06-10T15:01:16;7.03;;;6.15;;
13743;SDS011;6943;52.368;9.966;2023-06-10T15:03:43;7.55;;;6.88;;
13743;SDS011;6943;52.368;9.966;2023-06-10T15:06:09;7.05;;;6.43;;
13743;SDS011;6943;52.368;9.966;2023-06-10T15:08:35;10.63;;;7.32;;
13743;SDS011;6943;52.368;9.966;2023-06-10T15:11:01;7.65;;;6.95;;
13743;SDS011;6943;52.368;9.966;2023-06-10T15:13:27;7.90;;;7.10;;
13743;SDS011;6943;52.368;9.966;2023-06-10T15:15:53;9.48;;;6.93;;
13743;SDS011;6943;52.368;9.966;2023-06-10T15:18:19;10.10;;;7.28;;
13743;SDS011;6943;52.368;9.966;2023-06-10T15:20:45;8.25;;;6.80;;
13743;SDS011;6943;52.368;9.966;2023-06-10T15:23:11;7.53;;;6.78;;